createdAt,value
2022-11-09T00:00:44.177Z,24.90
2022-11-09T00:03:12.436Z,23.30
2022-11-09T00:05:41.228Z,24.30
2022-11-09T00:08:10.859Z,26.50
2022-11-09T00:10:38.851Z,23.30
2022-11-09T00:13:06.401Z,24.40
2022-11-09T00:15:33.956Z,25.80
2022-11-09T00:18:02.723Z,24.80
2022-11-09T00:20:30.615Z,28.30
2022-11-09T00:22:58.442Z,25.70
2022-11-09T00:25:26.018Z,26.70
2022-11-09T00:27:53.984Z,22.50
2022-11-09T00:30:21.564Z,25.00
2022-11-09T00:32:49.132Z,25.10
2022-11-09T00:35:16.723Z,25.10
2022-11-09T00:37:44.580Z,24.80
2022-11-09T00:40:13.094Z,24.60
2022-11-09T00:42:40.633Z,25.60
2022-11-09T00:45:08.491Z,24.50
2022-11-09T00:47:36.092Z,27.10
2022-11-09T00:50:04.843Z,23.20
2022-11-09T00:52:32.370Z,24.00
2022-11-09T00:54:59.877Z,28.00
2022-11-09T00:57:27.438Z,28.40
2022-11-09T00:59:55.024Z,26.40
2022-11-09T01:02:22.537Z,27.50
2022-11-09T01:04:50.095Z,24.10
2022-11-09T01:07:17.653Z,26.30
2022-11-09T01:09:45.221Z,24.40
2022-11-09T01:12:12.744Z,26.00
2022-11-09T01:14:40.266Z,27.40
2022-11-09T01:17:07.783Z,26.80
2022-11-09T01:19:35.466Z,26.90
2022-11-09T01:22:02.991Z,25.90
2022-11-09T01:24:30.515Z,26.90
2022-11-09T01:26:58.019Z,26.90
2022-11-09T01:29:25.563Z,25.80
2022-11-09T01:31:55.274Z,28.20
2022-11-09T01:34:23.453Z,30.10
2022-11-09T01:36:51.806Z,28.00
2022-11-09T01:39:19.965Z,25.00
2022-11-09T01:41:47.692Z,25.10
2022-11-09T01:44:18.011Z,25.00
2022-11-09T01:47:10.327Z,25.10
2022-11-09T01:49:50.132Z,25.70
2022-11-09T01:52:26.333Z,27.70
2022-11-09T01:55:00.443Z,26.30
2022-11-09T01:57:33.314Z,29.50
2022-11-09T02:00:07.499Z,26.10
2022-11-09T02:02:37.772Z,27.40
2022-11-09T02:05:09.723Z,30.10
2022-11-09T02:07:38.816Z,28.10
2022-11-09T02:10:14.510Z,29.50
2022-11-09T02:12:43.701Z,32.20
2022-11-09T02:15:13.169Z,27.20
2022-11-09T02:17:42.045Z,24.20
2022-11-09T02:20:14.784Z,32.00
2022-11-09T02:22:42.505Z,26.30
2022-11-09T02:25:11.421Z,31.80
2022-11-09T02:27:40.170Z,31.60
2022-11-09T02:30:09.464Z,29.70
2022-11-09T02:32:37.046Z,32.90
2022-11-09T02:35:04.977Z,27.60
2022-11-09T02:37:50.960Z,27.00
2022-11-09T02:40:32.981Z,27.30
2022-11-09T02:43:01.552Z,31.70
2022-11-09T02:45:29.088Z,33.60
2022-11-09T02:47:56.711Z,35.00
2022-11-09T02:50:24.458Z,34.00
2022-11-09T02:52:52.010Z,29.00
2022-11-09T02:55:19.558Z,30.40
2022-11-09T02:57:47.089Z,27.20
2022-11-09T03:00:15.685Z,26.20
2022-11-09T03:02:43.362Z,28.10
2022-11-09T03:05:10.919Z,31.30
2022-11-09T03:07:38.452Z,26.20
2022-11-09T03:10:06.435Z,30.00
2022-11-09T03:12:33.976Z,28.30
2022-11-09T03:15:05.293Z,28.40
2022-11-09T03:17:33.460Z,30.10
2022-11-09T03:20:01.041Z,31.10
2022-11-09T03:22:29.064Z,32.70
2022-11-09T03:24:57.026Z,32.60
2022-11-09T03:27:24.571Z,31.10
2022-11-09T03:29:52.285Z,28.90
2022-11-09T03:32:19.822Z,33.70
2022-11-09T03:34:47.422Z,32.20
2022-11-09T03:37:15.312Z,27.10
2022-11-09T03:39:42.896Z,31.60
2022-11-09T03:42:10.477Z,31.10
2022-11-09T03:44:38.050Z,32.60
2022-11-09T03:47:05.660Z,29.40
2022-11-09T03:49:33.288Z,28.30
2022-11-09T03:52:00.828Z,30.70
2022-11-09T03:54:28.463Z,31.50
2022-11-09T03:56:56.051Z,32.00
2022-11-09T03:59:23.634Z,28.10
2022-11-09T04:01:51.238Z,28.90
2022-11-09T04:04:19.259Z,33.80
2022-11-09T04:06:46.889Z,29.90
2022-11-09T04:09:14.597Z,29.00
2022-11-09T04:11:42.128Z,34.60
2022-11-09T04:14:09.659Z,30.10
2022-11-09T04:16:37.220Z,34.80
2022-11-09T04:19:05.025Z,27.90
2022-11-09T04:21:34.720Z,33.70
2022-11-09T04:24:02.294Z,30.70
2022-11-09T04:26:29.801Z,29.90
2022-11-09T04:28:57.923Z,32.80
2022-11-09T04:31:27.994Z,29.30
2022-11-09T04:33:55.989Z,30.30
2022-11-09T04:36:23.537Z,28.80
2022-11-09T04:38:51.525Z,31.70
2022-11-09T04:41:19.144Z,28.30
2022-11-09T04:43:46.778Z,36.00
2022-11-09T04:46:14.339Z,31.10
2022-11-09T04:48:41.930Z,32.20
2022-11-09T04:51:10.856Z,31.60
2022-11-09T04:53:39.280Z,31.80
2022-11-09T04:56:07.720Z,32.00
2022-11-09T04:58:35.598Z,29.00
2022-11-09T05:01:21.250Z,29.30
2022-11-09T05:03:48.976Z,30.40
2022-11-09T05:06:32.641Z,33.20
2022-11-09T05:09:05.614Z,34.30
2022-11-09T05:11:35.226Z,47.00
2022-11-09T05:14:03.070Z,67.10
2022-11-09T05:16:31.402Z,43.50
2022-11-09T05:18:59.014Z,31.20
2022-11-09T05:21:27.517Z,30.40
2022-11-09T05:24:01.207Z,33.80
2022-11-09T05:26:31.788Z,35.20
2022-11-09T05:29:01.112Z,30.90
2022-11-09T05:31:29.546Z,28.20
2022-11-09T05:33:58.080Z,34.70
2022-11-09T05:36:27.715Z,32.30
2022-11-09T05:38:55.517Z,33.10
2022-11-09T05:41:23.872Z,35.60
2022-11-09T05:43:51.713Z,30.30
2022-11-09T05:46:19.844Z,31.50
2022-11-09T05:48:47.382Z,31.50
2022-11-09T05:51:16.040Z,35.00
2022-11-09T05:53:46.849Z,52.90
2022-11-09T05:56:15.691Z,114.60
2022-11-09T05:58:43.651Z,62.90
2022-11-09T06:01:14.778Z,48.50
2022-11-09T06:03:43.986Z,37.50
2022-11-09T06:06:13.860Z,31.70
2022-11-09T06:08:42.085Z,32.80
2022-11-09T06:11:11.756Z,96.60
2022-11-09T06:13:39.399Z,78.20
2022-11-09T06:16:07.586Z,39.10
2022-11-09T06:18:37.076Z,42.90
2022-11-09T06:21:05.968Z,35.60
2022-11-09T06:23:34.354Z,38.30
2022-11-09T06:26:09.493Z,33.10
2022-11-09T06:28:38.809Z,33.80
2022-11-09T06:31:08.576Z,34.30
2022-11-09T06:33:36.756Z,35.30
2022-11-09T06:36:05.024Z,51.80
2022-11-09T06:38:32.755Z,51.50
2022-11-09T06:41:00.818Z,43.40
2022-11-09T06:43:28.849Z,31.80
2022-11-09T06:45:57.024Z,38.40
2022-11-09T06:48:24.923Z,51.20
2022-11-09T06:50:52.574Z,36.90
2022-11-09T06:53:21.001Z,35.80
2022-11-09T06:55:51.013Z,33.90
2022-11-09T06:58:19.924Z,36.20
2022-11-09T07:00:47.702Z,33.40
2022-11-09T07:03:17.487Z,36.60
2022-11-09T07:05:46.288Z,33.30
2022-11-09T07:08:17.211Z,32.50
2022-11-09T07:10:45.835Z,37.60
2022-11-09T07:13:16.911Z,32.20
2022-11-09T07:15:44.652Z,42.80
2022-11-09T07:18:13.211Z,41.30
2022-11-09T07:20:43.545Z,33.70
2022-11-09T07:23:14.501Z,36.90
2022-11-09T07:25:42.078Z,36.70
2022-11-09T07:28:11.323Z,32.80
2022-11-09T07:30:40.046Z,30.70
2022-11-09T07:33:18.259Z,31.20
2022-11-09T07:35:47.046Z,34.90
2022-11-09T07:38:20.340Z,40.20
2022-11-09T07:40:51.283Z,34.90
2022-11-09T07:43:20.749Z,47.90
2022-11-09T07:45:49.234Z,35.50
2022-11-09T07:48:16.870Z,36.60
2022-11-09T07:50:45.317Z,34.40
2022-11-09T07:53:14.630Z,35.20
2022-11-09T07:55:43.288Z,35.00
2022-11-09T07:58:14.354Z,36.00
2022-11-09T08:00:43.308Z,40.90
2022-11-09T08:03:17.662Z,45.20
2022-11-09T08:05:45.989Z,36.50
2022-11-09T08:08:17.611Z,37.00
2022-11-09T08:10:51.508Z,39.70
2022-11-09T08:13:22.131Z,38.40
2022-11-09T08:15:50.863Z,35.40
2022-11-09T08:18:20.805Z,33.00
2022-11-09T08:20:51.055Z,34.80
2022-11-09T08:23:21.961Z,39.30
2022-11-09T08:25:51.287Z,40.00
2022-11-09T08:28:20.814Z,43.40
2022-11-09T08:31:04.103Z,43.90
2022-11-09T08:33:38.527Z,39.00
2022-11-09T08:36:15.730Z,38.80
2022-11-09T08:38:50.048Z,38.80
2022-11-09T08:41:17.936Z,42.20
2022-11-09T08:43:45.530Z,39.20
2022-11-09T08:46:14.217Z,45.30
2022-11-09T08:48:41.799Z,37.30
2022-11-09T08:51:12.688Z,39.80
2022-11-09T08:53:43.066Z,43.30
2022-11-09T08:56:12.898Z,43.60
2022-11-09T08:58:40.616Z,41.60
2022-11-09T09:01:15.404Z,46.60
2022-11-09T09:03:49.660Z,37.40
2022-11-09T09:06:17.327Z,39.20
2022-11-09T09:08:46.432Z,42.10
2022-11-09T09:11:14.063Z,41.10
2022-11-09T09:13:43.608Z,34.80
2022-11-09T09:16:14.024Z,41.40
2022-11-09T09:18:42.068Z,35.90
2022-11-09T09:21:10.856Z,34.80
2022-11-09T09:23:38.399Z,34.30
2022-11-09T09:26:06.265Z,33.90
2022-11-09T09:28:33.911Z,61.50
2022-11-09T09:31:02.132Z,42.80
2022-11-09T09:33:29.766Z,38.00
2022-11-09T09:35:58.081Z,44.70
2022-11-09T09:38:27.272Z,40.30
2022-11-09T09:41:04.504Z,35.00
2022-11-09T09:43:43.864Z,29.30
2022-11-09T09:46:34.972Z,32.60
2022-11-09T09:49:28.692Z,35.60
2022-11-09T09:52:17.430Z,30.10
2022-11-09T09:55:06.959Z,33.30
2022-11-09T09:57:41.663Z,34.90
2022-11-09T10:00:25.748Z,47.60
2022-11-09T10:02:54.392Z,39.60
2022-11-09T10:05:33.073Z,35.90
2022-11-09T10:08:14.155Z,33.00
2022-11-09T10:11:03.542Z,33.70
2022-11-09T10:14:03.053Z,33.50
2022-11-09T10:17:01.505Z,41.90
2022-11-09T10:19:48.005Z,34.80
2022-11-09T10:22:19.905Z,28.00
2022-11-09T10:25:23.643Z,41.30
2022-11-09T10:28:03.962Z,40.70
2022-11-09T10:30:32.146Z,61.50
2022-11-09T10:33:24.101Z,90.60
2022-11-09T10:36:19.177Z,218.20
2022-11-09T10:38:51.542Z,118.40
2022-11-09T10:41:37.916Z,99.90
2022-11-09T10:44:17.134Z,148.50
2022-11-09T10:47:08.022Z,140.20
2022-11-09T10:49:37.545Z,65.40
2022-11-09T10:52:10.972Z,61.00
2022-11-09T10:54:38.730Z,62.60
2022-11-09T10:57:22.446Z,63.20
2022-11-09T11:00:01.043Z,48.60
2022-11-09T11:02:41.485Z,65.50
2022-11-09T11:05:09.514Z,30.80
2022-11-09T11:07:37.049Z,57.10
2022-11-09T11:10:17.212Z,49.30
2022-11-09T11:13:16.903Z,42.60
2022-11-09T11:15:45.371Z,51.60
2022-11-09T11:18:17.106Z,40.30
2022-11-09T11:20:45.309Z,52.10
2022-11-09T11:23:28.759Z,34.20
2022-11-09T11:26:28.344Z,34.60
2022-11-09T11:29:01.783Z,30.80
2022-11-09T11:31:29.741Z,28.10
2022-11-09T11:34:02.731Z,30.90
2022-11-09T11:36:49.768Z,27.60
2022-11-09T11:39:34.164Z,26.70
2022-11-09T11:42:20.173Z,33.20
2022-11-09T11:45:26.108Z,30.90
2022-11-09T11:48:26.056Z,28.50
2022-11-09T11:51:26.601Z,34.50
2022-11-09T11:54:26.078Z,31.90
2022-11-09T11:57:16.775Z,30.60
2022-11-09T12:00:16.246Z,30.30
2022-11-09T12:03:03.104Z,27.50
2022-11-09T12:05:33.790Z,32.50
2022-11-09T12:08:13.161Z,29.80
2022-11-09T12:10:41.304Z,37.20
2022-11-09T12:13:44.494Z,30.70
2022-11-09T12:16:46.622Z,34.50
2022-11-09T12:19:40.466Z,31.50
2022-11-09T12:22:24.023Z,29.40
2022-11-09T12:25:16.883Z,33.00
2022-11-09T12:28:00.528Z,28.70
2022-11-09T12:30:49.357Z,28.80
2022-11-09T12:33:54.377Z,25.80
2022-11-09T12:36:35.434Z,32.00
2022-11-09T12:39:22.462Z,29.10
2022-11-09T12:41:53.905Z,27.10
2022-11-09T12:44:32.357Z,35.20
2022-11-09T12:47:07.037Z,46.90
2022-11-09T12:49:40.933Z,35.40
2022-11-09T12:52:13.028Z,28.70
2022-11-09T12:54:44.033Z,30.30
2022-11-09T12:57:33.236Z,30.40
2022-11-09T13:00:01.596Z,40.60
2022-11-09T13:02:35.102Z,29.40
2022-11-09T13:05:26.245Z,31.70
2022-11-09T13:07:55.317Z,34.80
2022-11-09T13:10:25.403Z,37.40
2022-11-09T13:13:12.129Z,33.30
2022-11-09T13:15:40.129Z,28.40
2022-11-09T13:18:46.265Z,38.80
2022-11-09T13:21:34.764Z,41.90
2022-11-09T13:24:34.517Z,55.60
2022-11-09T13:27:03.996Z,46.20
2022-11-09T13:29:55.112Z,91.80
2022-11-09T13:32:27.520Z,120.80
2022-11-09T13:35:00.256Z,136.00
2022-11-09T13:37:46.010Z,113.80
2022-11-09T13:40:30.527Z,54.60
2022-11-09T13:43:08.297Z,85.70
2022-11-09T13:45:44.071Z,45.80
2022-11-09T13:48:47.819Z,133.90
2022-11-09T13:51:47.354Z,91.60
2022-11-09T13:54:32.516Z,52.20
2022-11-09T13:57:04.718Z,42.60
2022-11-09T13:59:39.385Z,55.60
2022-11-09T14:02:24.342Z,139.90
2022-11-09T14:04:51.911Z,127.50
2022-11-09T14:07:29.256Z,107.70
2022-11-09T14:09:56.789Z,73.60
2022-11-09T14:12:42.258Z,46.40
2022-11-09T14:15:41.824Z,65.80
2022-11-09T14:18:12.452Z,43.90
2022-11-09T14:20:56.015Z,39.60
2022-11-09T14:23:28.953Z,33.10
2022-11-09T14:25:57.015Z,46.80
2022-11-09T14:28:29.074Z,31.00
2022-11-09T14:30:58.059Z,48.70
2022-11-09T14:33:32.918Z,71.50
2022-11-09T14:36:04.385Z,158.70
2022-11-09T14:38:35.601Z,66.00
2022-11-09T14:41:03.706Z,35.10
2022-11-09T14:43:43.015Z,38.20
2022-11-09T14:46:28.939Z,32.60
2022-11-09T14:48:59.581Z,34.20
2022-11-09T14:51:33.439Z,35.80
2022-11-09T14:54:05.691Z,37.90
2022-11-09T14:56:37.783Z,37.30
2022-11-09T14:59:08.389Z,44.30
2022-11-09T15:01:36.090Z,37.10
2022-11-09T15:04:21.773Z,31.60
2022-11-09T15:07:02.578Z,59.20
2022-11-09T15:09:42.338Z,31.00
2022-11-09T15:12:15.389Z,40.70
2022-11-09T15:14:47.837Z,51.70
2022-11-09T15:17:32.157Z,36.80
2022-11-09T15:20:02.650Z,88.40
2022-11-09T15:22:46.164Z,49.00
2022-11-09T15:25:29.648Z,97.50
2022-11-09T15:28:00.167Z,48.60
2022-11-09T15:30:27.711Z,45.10
2022-11-09T15:32:55.403Z,44.60
2022-11-09T15:35:23.566Z,38.00
2022-11-09T15:37:53.786Z,48.10
2022-11-09T15:40:24.546Z,37.30
2022-11-09T15:42:52.225Z,71.70
2022-11-09T15:45:21.464Z,42.60
2022-11-09T15:47:55.422Z,41.30
2022-11-09T15:50:26.854Z,45.40
2022-11-09T15:52:54.454Z,37.80
2022-11-09T15:55:23.202Z,41.00
2022-11-09T15:57:52.495Z,42.10
2022-11-09T16:00:21.830Z,49.10
2022-11-09T16:02:49.606Z,45.80
2022-11-09T16:05:18.317Z,42.00
2022-11-09T16:07:51.318Z,47.10
2022-11-09T16:10:20.428Z,62.70
2022-11-09T16:12:47.999Z,43.90
2022-11-09T16:15:15.592Z,47.40
2022-11-09T16:17:43.144Z,65.10
2022-11-09T16:20:11.143Z,69.30
2022-11-09T16:22:38.851Z,77.40
2022-11-09T16:25:06.681Z,72.10
2022-11-09T16:27:49.633Z,155.00
2022-11-09T16:30:19.698Z,170.10
2022-11-09T16:32:47.244Z,157.70
2022-11-09T16:35:26.722Z,112.90
2022-11-09T16:37:56.823Z,65.30
2022-11-09T16:40:25.884Z,102.70
2022-11-09T16:42:53.513Z,132.70
2022-11-09T16:45:21.518Z,107.10
2022-11-09T16:47:52.457Z,71.90
2022-11-09T16:50:20.006Z,134.70
2022-11-09T16:52:47.539Z,165.80
2022-11-09T16:55:15.088Z,107.30
2022-11-09T16:57:42.675Z,181.60
2022-11-09T17:00:10.884Z,108.50
2022-11-09T17:02:38.514Z,75.10
2022-11-09T17:05:06.574Z,117.30
2022-11-09T17:07:42.061Z,100.40
2022-11-09T17:10:11.761Z,127.40
2022-11-09T17:12:40.077Z,87.80
2022-11-09T17:15:08.520Z,98.80
2022-11-09T17:17:36.098Z,76.50
2022-11-09T17:20:05.578Z,98.40
2022-11-09T17:22:33.483Z,68.70
2022-11-09T17:25:01.103Z,61.20
2022-11-09T17:27:28.970Z,124.20
2022-11-09T17:29:56.552Z,77.70
2022-11-09T17:32:27.362Z,68.00
2022-11-09T17:34:55.686Z,63.20
2022-11-09T17:37:24.015Z,50.10
2022-11-09T17:39:51.904Z,58.20
2022-11-09T17:42:19.455Z,43.30
2022-11-09T17:44:47.000Z,45.90
2022-11-09T17:47:14.578Z,44.90
2022-11-09T17:49:42.157Z,43.60
2022-11-09T17:52:09.693Z,45.00
2022-11-09T17:54:37.509Z,43.50
2022-11-09T17:57:05.222Z,37.80
2022-11-09T17:59:32.807Z,39.50
2022-11-09T18:02:00.386Z,39.80
2022-11-09T18:04:28.095Z,51.80
2022-11-09T18:06:55.723Z,43.20
2022-11-09T18:12:11.422Z,59.20
2022-11-09T18:14:38.972Z,51.40
2022-11-09T18:17:06.696Z,51.80
2022-11-09T18:19:34.246Z,47.40
2022-11-09T18:22:03.402Z,46.90
2022-11-09T18:24:33.108Z,112.00
2022-11-09T18:27:00.860Z,43.50
2022-11-09T18:29:28.504Z,48.10
2022-11-09T18:31:56.031Z,43.70
2022-11-09T18:34:23.596Z,51.90
2022-11-09T18:36:51.179Z,80.00
2022-11-09T18:39:18.798Z,127.80
2022-11-09T18:41:46.398Z,79.80
2022-11-09T18:44:13.931Z,64.40
2022-11-09T18:46:41.550Z,53.60
2022-11-09T18:49:14.071Z,53.20
2022-11-09T18:51:42.925Z,53.90
2022-11-09T18:54:10.510Z,64.00
2022-11-09T18:56:38.114Z,53.40
2022-11-09T18:59:05.705Z,50.30
2022-11-09T19:01:33.298Z,49.30
2022-11-09T19:04:01.834Z,46.70
2022-11-09T19:06:29.527Z,75.50
2022-11-09T19:09:13.168Z,110.40
2022-11-09T19:11:40.792Z,115.20
2022-11-09T19:14:10.485Z,75.90
2022-11-09T19:16:38.289Z,62.20
2022-11-09T19:19:05.910Z,59.50
2022-11-09T19:21:40.823Z,67.90
2022-11-09T19:24:12.532Z,72.30
2022-11-09T19:26:40.445Z,93.50
2022-11-09T19:29:09.554Z,76.80
2022-11-09T19:31:38.443Z,78.10
2022-11-09T19:34:06.072Z,70.10
2022-11-09T19:36:33.710Z,54.90
2022-11-09T19:39:02.148Z,52.20
2022-11-09T19:41:29.834Z,64.60
2022-11-09T19:43:58.917Z,69.00
2022-11-09T19:46:31.071Z,61.40
2022-11-09T19:48:59.837Z,102.40
2022-11-09T19:51:31.014Z,75.60
2022-11-09T19:53:59.941Z,58.50
2022-11-09T19:56:30.888Z,57.90
2022-11-09T19:59:01.544Z,53.90
2022-11-09T20:01:30.756Z,59.00
2022-11-09T20:04:00.342Z,59.00
2022-11-09T20:06:29.165Z,65.90
2022-11-09T20:08:59.912Z,53.90
2022-11-09T20:11:45.356Z,56.50
2022-11-09T20:14:14.129Z,50.80
2022-11-09T20:16:44.370Z,46.00
2022-11-09T20:19:14.072Z,47.70
2022-11-09T20:21:42.603Z,50.20
2022-11-09T20:24:12.259Z,56.20
2022-11-09T20:26:40.879Z,48.60
2022-11-09T20:29:08.442Z,45.50
2022-11-09T20:31:37.481Z,46.20
2022-11-09T20:34:05.860Z,46.30
2022-11-09T20:36:35.055Z,45.20
2022-11-09T20:39:03.361Z,53.20
2022-11-09T20:41:32.827Z,59.40
2022-11-09T20:44:00.407Z,58.40
2022-11-09T20:46:34.493Z,50.30
2022-11-09T20:49:04.533Z,52.30
2022-11-09T20:51:32.719Z,48.30
2022-11-09T20:54:05.671Z,46.90
2022-11-09T20:56:37.372Z,59.40
2022-11-09T20:59:05.450Z,66.90
2022-11-09T21:01:33.127Z,60.80
2022-11-09T21:04:00.770Z,62.90
2022-11-09T21:06:28.540Z,57.70
2022-11-09T21:08:56.951Z,50.70
2022-11-09T21:11:28.551Z,51.90
2022-11-09T21:13:56.217Z,59.50
2022-11-09T21:16:24.103Z,50.10
2022-11-09T21:18:52.006Z,51.30
2022-11-09T21:21:23.359Z,57.70
2022-11-09T21:24:06.996Z,51.70
2022-11-09T21:26:51.224Z,54.00
2022-11-09T21:29:36.515Z,57.70
2022-11-09T21:32:05.089Z,61.50
2022-11-09T21:34:36.826Z,52.30
2022-11-09T21:37:05.283Z,53.40
2022-11-09T21:39:33.692Z,65.00
2022-11-09T21:42:02.683Z,53.10
2022-11-09T21:44:32.386Z,50.70
2022-11-09T21:47:01.196Z,54.90
2022-11-09T21:49:28.986Z,53.70
2022-11-09T21:51:56.954Z,52.80
2022-11-09T21:54:25.401Z,56.80
2022-11-09T21:56:53.081Z,49.20
2022-11-09T21:59:20.732Z,53.10
2022-11-09T22:01:48.526Z,47.30
2022-11-09T22:04:16.259Z,44.90
2022-11-09T22:06:43.949Z,52.70
2022-11-09T22:09:18.164Z,52.00
2022-11-09T22:12:02.090Z,61.90
2022-11-09T22:14:45.683Z,65.60
2022-11-09T22:17:13.580Z,66.90
2022-11-09T22:19:57.193Z,73.50
2022-11-09T22:22:28.775Z,53.10
2022-11-09T22:24:57.267Z,49.20
2022-11-09T22:27:25.120Z,67.40
2022-11-09T22:29:52.721Z,90.30
2022-11-09T22:32:20.815Z,92.40
2022-11-09T22:34:48.424Z,69.70
2022-11-09T22:37:16.195Z,73.70
2022-11-09T22:39:47.194Z,114.20
2022-11-09T22:42:15.288Z,83.50
2022-11-09T22:44:42.824Z,59.60
2022-11-09T22:47:10.766Z,54.20
2022-11-09T22:49:38.386Z,54.60
2022-11-09T22:52:06.033Z,52.80
2022-11-09T22:54:33.595Z,54.00
2022-11-09T22:57:01.116Z,56.80
2022-11-09T22:59:28.654Z,50.80
2022-11-09T23:01:56.237Z,54.10
2022-11-09T23:04:23.912Z,97.00
2022-11-09T23:06:51.472Z,102.70
2022-11-09T23:09:19.099Z,112.50
2022-11-09T23:11:46.696Z,103.30
2022-11-09T23:14:14.282Z,59.30
2022-11-09T23:16:41.789Z,54.10
2022-11-09T23:19:09.326Z,55.30
2022-11-09T23:21:37.411Z,61.40
2022-11-09T23:24:07.313Z,88.80
2022-11-09T23:26:34.886Z,93.20
2022-11-09T23:29:02.430Z,77.70
2022-11-09T23:31:29.946Z,77.70
2022-11-09T23:33:57.972Z,78.80
2022-11-09T23:36:26.532Z,79.50
2022-11-09T23:38:54.080Z,67.80
2022-11-09T23:41:21.676Z,63.60
2022-11-09T23:43:50.201Z,61.80
2022-11-09T23:46:18.179Z,67.30
2022-11-09T23:48:45.903Z,72.90
2022-11-09T23:51:13.524Z,59.70
2022-11-09T23:53:41.067Z,63.40
2022-11-09T23:56:11.291Z,61.30
2022-11-09T23:58:39.065Z,66.40
